首页
METAR-TAF:

METAR-TAF

机场 :

Dinard, 法国

纬度: 48-35N, 经度: 002-04W, 海拔: 65米

当前天气观测

该预报发布于45分钟前的19:30 UTC
风速9节,风向南转西南
温度 8°C
湿度 76%
气压 1029 hPa
能见度10公里或以上
1500米以下无云,无积雨云

METAR: LFRD 211930Z AUTO 21009KT CAVOK 08/04 Q1029 NOSIG

时间: 21:15 (20:15 UTC)

预报

该预报发布于3小时和15分钟前的17:00 UTC
预报有效从21日的 18点(UTC)到 22日的 18点(UTC)
风速12节,风向西南
能见度10公里或以上
散云层高于3000英尺
短暂存在
从 22日的 02点(UTC)到 22日的 15点(UTC)
风速15节,风向南转西南,有时为25节阵风
几率 30% :
短暂存在
从 22日的 04点(UTC)到 22日的 07点(UTC)
多云层高于1000英尺
成为
从 22日的 07点(UTC)到 22日的 09点(UTC)
多云层高于1300英尺
短暂存在
从 22日的 11点(UTC)到 22日的 16点(UTC)
多云层高于800英尺
成为
从 22日的 16点(UTC)到 22日的 18点(UTC)
阴天层高于800英尺
短暂存在
从 22日的 16点(UTC)到 22日的 18点(UTC)
能見度: 4000
多云层高于400英尺
小毛毛雨

TAF: LFRD 211700Z 2118/2218 22012KT 9999 SCT030 TEMPO 2202/2215 21015G25KT PROB30 TEMPO 2204/2207 BKN010 BECMG 2207/2209 BKN013 TEMPO 2211/2216 BKN008 BECMG 2216/2218 OVC008 TEMPO 2216/2218 4000 -DZ BKN004

超过4000个机场的气象观测和天气预报(METAR&TAF报告)。

可查询的气象台以黄色和红色小点在地图上表示。

将鼠标移到小点上方,可查看气象台名称。

然后点击查看天气观测和预报。

如需切换地图:点击带黑十字的绿色按钮放大地图;点击带横线的绿色按钮缩小地图;或者点击绿色箭头查看邻近地区的地图。


METAR-TAF: